Time;durP1;ratioP1;P1;durP2;ratioP2;P2;SDS_P1;SDS_P2;PMS_P1;PMS_P2;Temp;Humidity;BMP_temperature;BMP_pressure;BME280_temperature;BME280_humidity;BME280_pressure;Samples;Min_cycle;Max_cycle;Signal;HPM_P1;HPM_P2
2022/09/25 00:08:08;;;;;;;9.75;4.22;;;9.20;99.90;;;;;;21043943;28;20037;-85
2022/09/25 00:18:09;;;;;;;10.93;4.45;;;9.20;99.90;;;;;;21035540;28;20044;-86
2022/09/25 00:28:09;;;;;;;17.97;5.97;;;9.20;99.90;;;;;;21003704;28;20066;-82
2022/09/25 00:38:10;;;;;;;12.30;5.37;;;9.40;99.90;;;;;;20985959;28;20041;-83
2022/09/25 00:48:14;;;;;;;19.40;6.30;;;9.20;99.90;;;;;;20990023;28;20044;-82
2022/09/25 00:58:19;;;;;;;16.23;6.15;;;9.00;99.90;;;;;;21003822;28;20192;-81
2022/09/25 01:08:25;;;;;;;7.65;4.18;;;8.90;99.90;;;;;;20971777;28;20052;-82
2022/09/25 01:18:46;;;;;;;12.23;6.15;;;8.70;99.90;;;;;;20990811;28;20067;-84
2022/09/25 01:28:49;;;;;;;16.90;7.85;;;8.90;99.90;;;;;;20985441;28;20036;-81
2022/09/25 01:39:05;;;;;;;27.00;9.48;;;9.10;99.90;;;;;;20992253;28;20390;-83
2022/09/25 01:49:12;;;;;;;78.28;11.32;;;9.20;99.90;;;;;;20976765;28;20048;-81
2022/09/25 01:59:36;;;;;;;22.95;6.97;;;9.30;99.90;;;;;;21010469;28;20042;-80
2022/09/25 02:09:48;;;;;;;10.73;6.28;;;8.80;99.90;;;;;;20990313;28;20032;-83
2022/09/25 02:30:10;;;;;;;8.98;5.15;;;8.50;99.90;;;;;;20991446;28;20036;-80
2022/09/25 02:40:11;;;;;;;20.50;6.50;;;8.70;99.90;;;;;;20972793;28;20043;-81
2022/09/25 02:50:26;;;;;;;26.80;9.50;;;8.60;99.90;;;;;;21011302;28;20431;-79
2022/09/25 03:00:28;;;;;;;10.32;5.95;;;8.70;99.90;;;;;;20993319;28;20037;-82
2022/09/25 03:10:32;;;;;;;10.80;4.53;;;8.70;99.90;;;;;;20994135;28;20044;-80
2022/09/25 03:20:33;;;;;;;5.65;3.55;;;8.50;99.90;;;;;;20992656;28;20082;-80
2022/09/25 03:30:34;;;;;;;10.53;4.77;;;8.60;99.90;;;;;;21005127;28;20071;-82
2022/09/25 03:40:35;;;;;;;59.27;10.60;;;8.70;99.90;;;;;;20987208;28;20037;-80
2022/09/25 03:50:38;;;;;;;15.53;7.17;;;9.00;99.90;;;;;;21003749;28;20535;-80
2022/09/25 04:00:38;;;;;;;28.77;9.57;;;9.10;99.90;;;;;;20983608;28;20087;-80
2022/09/25 04:10:40;;;;;;;20.73;9.10;;;9.10;99.90;;;;;;20965521;28;20041;-80
2022/09/25 04:20:41;;;;;;;;;;;9.30;99.90;;;;;;20963939;28;20508;-81
2022/09/25 04:30:41;;;;;;;17.33;7.07;;;9.40;99.90;;;;;;20981631;28;20329;-80
2022/09/25 04:40:44;;;;;;;14.67;6.40;;;9.50;99.90;;;;;;20996913;28;20280;-81
2022/09/25 04:50:49;;;;;;;29.48;8.70;;;9.40;99.90;;;;;;20962573;28;20068;-80
2022/09/25 05:00:50;;;;;;;23.00;8.52;;;9.40;99.90;;;;;;20982785;28;20037;-79
2022/09/25 05:10:51;;;;;;;27.83;7.70;;;9.60;99.90;;;;;;21001232;28;20048;-80
2022/09/25 05:20:53;;;;;;;19.90;6.80;;;9.50;99.90;;;;;;20980060;28;20048;-79
2022/09/25 05:30:54;;;;;;;17.02;7.50;;;9.50;99.90;;;;;;20966272;28;20048;-81
2022/09/25 05:40:55;;;;;;;15.47;6.13;;;9.50;99.90;;;;;;20983339;28;20090;-79
2022/09/25 05:50:57;;;;;;;21.92;8.68;;;9.40;99.90;;;;;;20984026;28;20040;-79
2022/09/25 06:01:05;;;;;;;27.00;8.23;;;9.60;99.90;;;;;;20978744;28;20043;-79
2022/09/25 06:11:07;;;;;;;56.55;10.27;;;9.60;99.90;;;;;;20987816;28;20124;-82
2022/09/25 06:21:07;;;;;;;;;;;9.70;99.90;;;;;;21021544;28;20052;-82
2022/09/25 06:32:15;;;;;;;;;;;;;;;;;;;;;
2022/09/25 07:29:09;;;;;;;11.48;6.60;;;10.70;99.90;;;;;;20800698;22;20048;-77
2022/09/25 07:39:09;;;;;;;13.10;7.17;;;10.90;99.90;;;;;;20996966;28;20547;-77
2022/09/25 07:49:11;;;;;;;19.20;9.07;;;11.10;99.90;;;;;;20977550;28;20049;-77
2022/09/25 07:59:11;;;;;;;12.45;7.55;;;11.20;99.90;;;;;;21029916;28;20035;-77
2022/09/25 08:09:12;;;;;;;20.57;9.27;;;11.20;99.90;;;;;;21042677;28;20038;-76
2022/09/25 08:19:16;;;;;;;21.57;8.67;;;11.20;99.90;;;;;;21076874;28;20081;-76
2022/09/25 08:29:17;;;;;;;18.75;7.78;;;11.50;99.90;;;;;;21075386;28;20054;-76
2022/09/25 08:39:18;;;;;;;19.13;9.57;;;11.60;99.90;;;;;;20943551;28;20037;-77
2022/09/25 08:49:23;;;;;;;23.87;11.23;;;11.60;99.90;;;;;;20920894;28;20514;-78
2022/09/25 08:59:37;;;;;;;19.75;9.43;;;11.70;99.90;;;;;;20944061;28;20509;-77
2022/09/25 09:09:47;;;;;;;19.08;9.02;;;12.00;99.90;;;;;;20964525;28;20035;-76
2022/09/25 09:19:53;;;;;;;15.88;8.50;;;12.70;99.90;;;;;;20957765;28;20127;-77
2022/09/25 09:30:06;;;;;;;17.55;8.93;;;12.90;99.90;;;;;;20957256;28;20032;-77
2022/09/25 09:40:22;;;;;;;16.08;9.75;;;12.80;99.90;;;;;;20916823;28;20037;-77
2022/09/25 09:50:29;;;;;;;14.38;6.88;;;13.20;99.90;;;;;;20915226;28;20165;-76
2022/09/25 10:00:31;;;;;;;16.90;9.10;;;13.20;99.90;;;;;;21006040;28;20097;-76
2022/09/25 10:10:41;;;;;;;12.18;7.25;;;13.30;99.90;;;;;;20969125;28;20047;-77
2022/09/25 10:21:02;;;;;;;15.35;7.70;;;13.20;99.90;;;;;;21003704;28;20536;-78
2022/09/25 10:31:07;;;;;;;12.47;6.73;;;13.20;99.90;;;;;;21003170;28;20041;-77
2022/09/25 10:41:11;;;;;;;12.90;6.82;;;13.40;99.90;;;;;;21002871;28;20078;-78
2022/09/25 10:51:16;;;;;;;18.58;7.85;;;13.60;99.90;;;;;;20985007;28;20045;-78
2022/09/25 11:01:17;;;;;;;17.58;10.40;;;14.80;99.90;;;;;;21004344;28;20044;-79
2022/09/25 11:11:25;;;;;;;15.83;9.70;;;15.60;99.90;;;;;;20967790;28;20044;-77
2022/09/25 11:21:38;;;;;;;18.02;9.30;;;14.90;99.90;;;;;;20909797;28;20041;-79
2022/09/25 11:31:56;;;;;;;12.98;7.50;;;15.20;99.90;;;;;;20914858;28;20093;-77
2022/09/25 11:42:32;;;;;;;18.33;9.60;;;15.60;99.90;;;;;;20971343;28;20041;-77
2022/09/25 11:53:00;;;;;;;15.90;8.63;;;14.50;99.90;;;;;;20896301;28;20040;-77
2022/09/25 12:03:07;;;;;;;14.27;8.30;;;15.10;99.90;;;;;;20913467;28;20040;-77
2022/09/25 12:13:39;;;;;;;16.60;8.25;;;15.90;99.90;;;;;;20910870;28;20049;-78
2022/09/25 12:24:00;;;;;;;15.77;7.85;;;15.60;99.90;;;;;;20911136;28;20124;-78
2022/09/25 12:34:13;;;;;;;10.98;6.40;;;16.50;99.90;;;;;;20910946;28;20052;-78
2022/09/25 12:44:40;;;;;;;15.88;6.43;;;16.90;99.90;;;;;;20877004;28;20052;-77
2022/09/25 12:54:58;;;;;;;9.10;5.65;;;16.40;99.90;;;;;;20909918;28;20453;-77
2022/09/25 13:05:19;;;;;;;8.90;5.72;;;15.90;99.90;;;;;;20874596;28;20043;-78
2022/09/25 13:15:27;;;;;;;9.40;5.35;;;15.90;99.90;;;;;;20908177;28;20114;-78
2022/09/25 13:25:29;;;;;;;8.25;4.90;;;15.50;99.90;;;;;;20939071;28;20037;-78
2022/09/25 13:35:31;;;;;;;6.18;3.83;;;15.80;99.90;;;;;;20999913;28;20040;-78
2022/09/25 13:45:33;;;;;;;7.53;3.58;;;16.20;99.90;;;;;;20978288;23;20049;-77
2022/09/25 13:55:42;;;;;;;6.80;3.92;;;16.10;99.90;;;;;;21005012;28;20040;-76
2022/09/25 14:05:42;;;;;;;5.60;3.10;;;15.90;99.90;;;;;;20986151;28;20047;-76
2022/09/25 14:15:45;;;;;;;5.83;3.27;;;15.70;99.90;;;;;;21003575;28;20597;-76
2022/09/25 14:25:55;;;;;;;4.75;3.00;;;15.80;99.90;;;;;;21002457;28;20040;-75
2022/09/25 14:36:01;;;;;;;7.22;3.42;;;15.60;99.90;;;;;;21001264;28;20045;-76
2022/09/25 14:46:17;;;;;;;6.63;4.03;;;15.50;99.90;;;;;;21002099;28;20048;-76
2022/09/25 14:56:19;;;;;;;9.40;3.85;;;15.50;99.90;;;;;;20982715;28;20064;-76
2022/09/25 15:06:25;;;;;;;6.47;3.30;;;15.40;99.90;;;;;;20981854;28;20036;-76
2022/09/25 15:27:02;;;;;;;5.55;3.20;;;15.20;99.90;;;;;;20998504;28;20036;-76
2022/09/25 15:37:27;;;;;;;6.63;3.28;;;15.00;99.90;;;;;;20997824;28;20048;-76
2022/09/25 15:47:34;;;;;;;5.20;3.35;;;14.90;99.90;;;;;;20997085;28;20098;-75
2022/09/25 15:57:35;;;;;;;6.93;3.78;;;14.90;99.90;;;;;;20995255;28;20044;-75
2022/09/25 16:07:37;;;;;;;8.83;4.10;;;14.70;99.90;;;;;;20995236;28;20037;-76
2022/09/25 16:17:40;;;;;;;7.90;5.07;;;14.40;99.90;;;;;;20993151;28;20051;-78
2022/09/25 16:27:45;;;;;;;9.40;5.07;;;13.90;99.90;;;;;;20987522;28;20076;-77
2022/09/25 16:37:49;;;;;;;9.90;3.80;;;13.90;99.90;;;;;;21003840;28;20464;-77
2022/09/25 16:47:50;;;;;;;6.35;4.13;;;13.80;99.90;;;;;;21048684;28;20047;-77
2022/09/25 16:57:53;;;;;;;8.80;4.57;;;13.60;99.90;;;;;;20940259;28;20043;-77
2022/09/25 17:07:59;;;;;;;6.75;4.03;;;13.50;99.90;;;;;;21055690;28;20323;-77
2022/09/25 17:18:01;;;;;;;6.05;3.90;;;13.50;99.90;;;;;;21073909;28;20058;-77
2022/09/25 17:28:04;;;;;;;8.25;4.70;;;13.40;99.90;;;;;;21048365;28;20087;-75
2022/09/25 17:38:05;;;;;;;9.93;6.47;;;13.20;99.90;;;;;;20991541;28;20110;-76
2022/09/25 17:48:06;;;;;;;10.10;6.87;;;12.80;99.90;;;;;;20971930;28;20040;-78
2022/09/25 17:58:06;;;;;;;28.67;13.60;;;12.60;99.90;;;;;;20974281;28;20040;-78
2022/09/25 18:08:08;;;;;;;13.50;7.80;;;12.40;99.90;;;;;;20958070;28;20033;-77
2022/09/25 18:18:09;;;;;;;10.93;7.00;;;12.20;99.90;;;;;;20976955;28;20066;-78
2022/09/25 18:28:10;;;;;;;14.50;7.57;;;12.20;99.90;;;;;;21035043;28;20036;-78
2022/09/25 18:38:11;;;;;;;7.97;4.97;;;12.20;99.90;;;;;;21003859;28;20098;-77
2022/09/25 18:48:12;;;;;;;8.33;5.17;;;11.90;99.90;;;;;;20991764;28;20432;-78
2022/09/25 18:58:13;;;;;;;8.10;5.40;;;11.80;99.90;;;;;;20991800;28;20449;-78
2022/09/25 19:08:13;;;;;;;8.53;4.67;;;11.70;99.90;;;;;;21008969;28;20039;-76
2022/09/25 19:18:14;;;;;;;11.00;5.70;;;11.80;99.90;;;;;;20957105;28;20090;-77
2022/09/25 19:28:15;;;;;;;12.37;6.07;;;11.80;99.90;;;;;;20934482;28;20052;-78
2022/09/25 19:38:16;;;;;;;7.23;5.03;;;11.80;99.90;;;;;;20967668;28;20040;-75
2022/09/25 19:48:17;;;;;;;10.27;5.77;;;11.80;99.90;;;;;;20888230;22;20137;-75
2022/09/25 19:58:18;;;;;;;8.23;4.43;;;11.60;99.90;;;;;;20743902;28;20519;-76
2022/09/25 20:08:19;;;;;;;5.93;3.90;;;11.70;99.90;;;;;;20742538;28;20140;-76
2022/09/25 20:18:21;;;;;;;;;;;11.60;99.90;;;;;;20762780;28;20047;-76
2022/09/25 20:28:22;;;;;;;7.90;4.20;;;11.50;99.90;;;;;;20743138;28;19917;-76
2022/09/25 20:38:24;;;;;;;6.20;4.27;;;11.50;99.90;;;;;;20825562;28;20102;-77
2022/09/25 20:48:24;;;;;;;7.25;4.80;;;11.50;99.90;;;;;;20826790;28;20128;-75
2022/09/25 20:58:25;;;;;;;8.87;5.70;;;11.50;99.90;;;;;;20826213;28;20107;-75
2022/09/25 21:08:27;;;;;;;7.50;5.17;;;11.30;99.90;;;;;;20827422;28;20068;-75
2022/09/25 21:18:28;;;;;;;12.80;7.40;;;11.40;99.90;;;;;;20825171;28;20045;-75
2022/09/25 21:28:30;;;;;;;16.40;9.73;;;11.40;99.90;;;;;;20824796;28;20474;-76
2022/09/25 21:38:33;;;;;;;21.38;10.85;;;11.40;99.90;;;;;;20824654;28;20048;-77
2022/09/25 21:48:36;;;;;;;14.48;8.15;;;11.40;99.90;;;;;;20831519;28;20041;-75
2022/09/25 21:58:36;;;;;;;14.02;7.88;;;11.40;99.90;;;;;;20839264;28;20073;-75
2022/09/25 22:08:40;;;;;;;13.93;8.03;;;11.30;99.90;;;;;;20839491;28;20038;-76
2022/09/25 22:18:42;;;;;;;14.13;8.23;;;11.30;99.90;;;;;;20821288;28;20392;-75
2022/09/25 22:28:43;;;;;;;15.50;7.57;;;11.30;99.90;;;;;;20821020;28;20033;-76
2022/09/25 22:38:44;;;;;;;9.20;5.23;;;11.30;99.90;;;;;;20822875;28;20042;-76
2022/09/25 22:48:44;;;;;;;9.03;4.97;;;11.30;99.90;;;;;;20836754;28;20060;-75
2022/09/25 22:58:48;;;;;;;9.13;5.27;;;11.20;99.90;;;;;;20835491;28;20041;-76
2022/09/25 23:08:58;;;;;;;9.82;6.43;;;11.10;99.90;;;;;;20835679;28;20052;-76
2022/09/25 23:19:00;;;;;;;13.90;7.35;;;11.10;99.90;;;;;;20834770;28;20045;-75
2022/09/25 23:29:01;;;;;;;;;;;11.10;99.90;;;;;;20815760;28;20037;-75
2022/09/25 23:39:03;;;;;;;12.45;7.32;;;11.10;99.90;;;;;;20832817;28;19915;-75
2022/09/25 23:49:04;;;;;;;16.77;9.27;;;11.10;99.90;;;;;;20831386;28;20531;-75
2022/09/25 23:59:05;;;;;;;14.23;8.48;;;11.00;99.90;;;;;;20833292;28;20048;-75
